Somerset, KY

9:41 AM EDT on July 26, 2014 (GMT -0400)
RMR - Somerset (KKYFERGU2) Elev 909 ft | 37.10 °N, 84.60 °W | Change Station
Active Advisory: Special Statement Active Notice: Record Report

Current weather conditions updated 6 minutes ago

Clear
Clear
72.6 °F
Feels Like 72 °F
N
1.0
Wind Variable Wind from ESE
Gusts 3.0 mph

Today is forecast to be Much Warmer than yesterday. Slight chance of a thunderstorm tonight.

Today
High -- | Low -- °F
--% Chance of Precip.
Yesterday
High -- | Low -- °F
Precip. -- in
6:38 AM 8:50 PM
Waning Crescent, 0% visible
Pressure 30.07 in
Visibility 10.0 miles
Clouds Clear
Heat Index 72 °F
Dew Point 67 °F
Humidity 82%
Rainfall 0.00 in
Snow Depth Not available.
UV 4 out of 12
Pollen 5.30 out of 12
Air Quality Not available.
Flu Activity Not available.
METAR KSME 261335Z AUTO 16003KT 10SM CLR 21/20 A3007 RMK AO2

More Conditions Fewer Conditions

Pressure 30.07 in
Visibility 10.0 miles
Clouds Clear
Heat Index 72 °F
Dew Point 67 °F
Humidity 82%
Rainfall 0.00 in
Snow Depth Not available.
UV 4 out of 12
Pollen 5.30 out of 12
Air Quality Not available.
Flu Activity Not available.
METAR KSME 261335Z AUTO 16003KT 10SM CLR 21/20 A3007 RMK AO2

More Conditions Fewer Conditions

10-Day Weather Forecast

Almanac

Astronomy

Jul. 26, 2014 Rise Set
Actual Time 6:38 AM EDT 8:50 PM EDT
Civil Twilight 6:09 AM EDT 9:19 PM EDT
Nautical Twilight 5:33 AM EDT 9:55 PM EDT
Astronomical Twilight 4:54 AM EDT 10:34 PM EDT
Moon 6:28 AM EDT 8:26 PM EDT
Length of Visible Light 15h 10m
Length of Day
14h 12m
Tomorrow will be 1m 36s shorter.
Waning Crescent, 0% of the Moon is Illuminated
Today
Waning Crescent
Jul 26
New
Aug 3
First Quarter
Aug 10
Full
Aug 17
Last Quarter

Today's Extremes

State Highs State Lows

Community

WunderPhotos

Upload Photos

1,737,570 photos uploaded!

Nearby

Snow Depth

Station Depth Elevation
No new snow has been reported.

Earthquake Activity

City Distance Mag. Time & Date
No recent earthquake activity has been reported nearby.
Minimum magnitude displayed is 2.5.

Coastal Water Temperatures

Place Temperature
No Stations Reporting

Nearby Weather Stations

Station Location Temp. Heat Index Dew Point Humidity Wind Precip. Elev Updated Type
RMR - Somerset, Ferguson, KY 72.6 °F 72 °F 67 °F 82% ESE  at  1.0 mph 0.00 in / hr 909 ft 9:35 AM EDT Normal
RAWS SOMERSET KY, Ferguson, KY 71 °F 71 °F 65 °F 82% ESE  at  4 mph 0.00 in / hr 920 ft 9:01 AM EDT MADIS
HALLS BACKYARD WEATHER, SCIENCE HILL, KY 74.2 °F 76 °F 64 °F 71% South  at  0.0 mph 0.00 in / hr 1076 ft 9:40 AM EDT Normal
Burnside, KY 69.6 °F - 48 °F 46% SW  at  0.0 mph 0.00 in / hr 1200 ft 9:41 AM EDT Rapid Fire
Colonial Estates, Monticello, KY 74.5 °F 75 °F 67 °F 77% SW  at  0.7 mph 0.00 in / hr 1004 ft 9:40 AM EDT Normal
MSWO, London, KY 72.3 °F 71 °F 67 °F 84% SSW  at  0.0 mph 0.00 in / hr 1163 ft 9:41 AM EDT Rapid Fire

Show More Stations Show Fewer Stations